Topacio — EA3917 — position and weather

sailwx.info

Track history (hours):
 
Tides and Currents Weather Stations Pressure Air Temp Water Temp Dewpoint Dewpoint Depression Visibility Wind Speed Wind Dir Waves Ship Positions

Topacio

Last reported at 2017-Oct-15 18:33 UTC. Time now 2017-Oct-17 13:54 UTC.
Position N 37°58' W 000°31'.

Length 24 m.

Type: Fishing. MMSI: 224217120.

Date/timePositionNaut miles runAvg speedWind from/ knotsBaromVisibWave heightAir tempDewpointWater temp
2017-Oct-15 18:33N 37°58' W 000°31'0 9.0
2017-Oct-15 18:30N 37°58' W 000°32'4 8.8
2017-Oct-15 18:00N 37°55' W 000°36'4 8.6
2017-Oct-15 17:30N 37°52' W 000°40'4 8.6
2017-Oct-15 17:00N 37°49' W 000°44'1 1.5
2017-Oct-15 16:30N 37°49' W 000°45'0 0.0
2017-Oct-15 16:00N 37°49' W 000°45'0 0.0
2017-Oct-15 15:30N 37°49' W 000°45'  
2017-Oct-13 06:54N 37°49' W 000°45'0 0.0
2017-Oct-13 06:30N 37°49' W 000°45'0 0.1
2017-Oct-13 06:00N 37°49' W 000°45'4 7.7
2017-Oct-13 05:30N 37°50' W 000°40'3 5.2
2017-Oct-13 04:57N 37°49' W 000°37'0 0.6
2017-Oct-13 04:17N 37°48' W 000°38'0 0.7
2017-Oct-13 03:49N 37°48' W 000°38'0 0.1
2017-Oct-13 03:17N 37°48' W 000°38'0 0.5
2017-Oct-13 02:56N 37°48' W 000°38'0 1.1
2017-Oct-13 02:30N 37°49' W 000°38'0 0.6
2017-Oct-13 02:00N 37°48' W 000°38'0 0.3
2017-Oct-13 01:21N 37°48' W 000°38'0 0.3
2017-Oct-13 01:00N 37°49' W 000°38'0 0.6
2017-Oct-13 00:29N 37°48' W 000°38'0 0.2
2017-Oct-13 00:00N 37°48' W 000°38'0 0.4
2017-Oct-12 23:25N 37°48' W 000°38'0 0.1
2017-Oct-12 22:54N 37°48' W 000°38'0 0.4
2017-Oct-12 22:25N 37°48' W 000°38'2 2.6
2017-Oct-12 21:32N 37°46' W 000°38'0 9.2
2017-Oct-12 21:30N 37°46' W 000°38'2 3.5
2017-Oct-12 21:00N 37°48' W 000°37'3 5.9
2017-Oct-12 20:30N 37°45' W 000°37'0 0.6
2017-Oct-12 20:00N 37°45' W 000°37'0 0.2
2017-Oct-12 19:30N 37°45' W 000°37'4 7.6
2017-Oct-12 19:00N 37°47' W 000°41'3 0.1
2017-Oct-11 00:00N 37°43' W 000°42'4 8.2
2017-Oct-10 23:30N 37°45' W 000°37'0 0.5
2017-Oct-10 23:00N 37°45' W 000°37'0 0.7
2017-Oct-10 22:30N 37°45' W 000°37'0 0.2
2017-Oct-10 21:32N 37°45' W 000°37'0 3.8
2017-Oct-10 21:30N 37°45' W 000°37'0 0.2
2017-Oct-10 21:00N 37°45' W 000°37'0 0.2
2017-Oct-10 20:30N 37°45' W 000°37'3 6.9
2017-Oct-10 20:00N 37°47' W 000°41'4 8.4
2017-Oct-10 19:30N 37°49' W 000°45'0 0.0
2017-Oct-10 10:07N 37°49' W 000°45'0 0.0
2017-Oct-10 10:00N 37°49' W 000°45'0 0.0
2017-Oct-10 09:30N 37°49' W 000°45'0 0.0
2017-Oct-10 09:00N 37°49' W 000°45'0 0.0
2017-Oct-10 08:30N 37°49' W 000°45'0 0.0
2017-Oct-10 08:00N 37°49' W 000°45'4 8.0
2017-Oct-10 07:30N 37°52' W 000°41'5 9.5
2017-Oct-10 06:57N 37°54' W 000°35'6 0.8
2017-Oct-09 23:13N 37°58' W 000°30'2 8.8
2017-Oct-09 23:00N 37°57' W 000°31'0 0.7
2017-Oct-09 22:26N 37°56' W 000°31'0 0.6
2017-Oct-09 21:56N 37°56' W 000°31'2 3.2
2017-Oct-09 21:26N 37°55' W 000°32'2 4.2
2017-Oct-09 21:00N 37°53' W 000°32'0 0.1
2017-Oct-09 20:29N 37°53' W 000°32'3 6.3
2017-Oct-09 19:58N 37°51' W 000°35'4 9.2
2017-Oct-09 19:30N 37°50' W 000°40'4 0.4
2017-Oct-09 08:27N 37°49' W 000°45'0 0.0
2017-Oct-09 08:01N 37°49' W 000°45'2 4.6
2017-Oct-09 07:31N 37°50' W 000°43'5 9.0
2017-Oct-09 07:01N 37°52' W 000°37'4 8.7
2017-Oct-09 06:31N 37°53' W 000°32'1 1.1
2017-Oct-09 06:01N 37°54' W 000°32'0 0.5
2017-Oct-09 05:31N 37°53' W 000°32'1 1.4
2017-Oct-09 04:59N 37°54' W 000°32'0 0.7
2017-Oct-09 04:30N 37°54' W 000°32'0 0.3
2017-Oct-09 04:01N 37°54' W 000°32'0 0.5
2017-Oct-09 03:31N 37°54' W 000°32'0 0.5
2017-Oct-09 03:00N 37°54' W 000°32'0 0.2
2017-Oct-09 02:31N 37°54' W 000°32'2 3.2
2017-Oct-09 01:59N 37°55' W 000°32'0 0.4
2017-Oct-09 01:30N 37°55' W 000°32'0 0.2
2017-Oct-09 00:57N 37°55' W 000°31'1 1.8
2017-Oct-09 00:30N 37°56' W 000°32'0 0.4
2017-Oct-08 23:24N 37°56' W 000°32'0 0.5
2017-Oct-08 23:00N 37°55' W 000°31'4 7.8
2017-Oct-08 22:30N 37°53' W 000°35'1 1.5
2017-Oct-08 22:00N 37°52' W 000°36'0 0.1
2017-Oct-08 21:31N 37°52' W 000°36'3 6.5
2017-Oct-08 21:00N 37°51' W 000°39'4 9.0
2017-Oct-08 20:31N 37°49' W 000°45'  
2017-Oct-06 11:29N 37°49' W 000°45'0 0.0
2017-Oct-06 10:22N 37°49' W 000°45'0 0.0
2017-Oct-06 10:00N 37°49' W 000°45'0 0.0
2017-Oct-06 09:30N 37°49' W 000°45'0 0.0
2017-Oct-06 09:00N 37°49' W 000°45'0 0.0
2017-Oct-06 08:30N 37°49' W 000°45'0 0.0
2017-Oct-06 08:00N 37°49' W 000°45'0 0.0
2017-Oct-06 07:30N 37°49' W 000°45'0 0.0
2017-Oct-06 07:00N 37°49' W 000°45'0 0.8
2017-Oct-06 06:30N 37°49' W 000°45'5 9.1
2017-Oct-06 06:00N 37°52' W 000°41'4 8.1
2017-Oct-06 05:29N 37°54' W 000°36'1 1.7
2017-Oct-06 05:00N 37°55' W 000°35'5 1.9
2017-Oct-06 02:12N 37°52' W 000°29'1 1.6
2017-Oct-06 01:41N 37°52' W 000°30'3 8.8
2017-Oct-06 01:20N 37°51' W 000°34'3 8.7
2017-Oct-06 00:59N 37°50' W 000°37'4 8.5
2017-Oct-06 00:30N 37°50' W 000°42'  
Track history (hours):
 
Tides and Currents Weather Stations Pressure Air Temp Water Temp Dewpoint Dewpoint Depression Visibility Wind Speed Wind Dir Waves Ship Positions

Topacio

Last reported at 2017-Oct-15 18:33 UTC. Time now 2017-Oct-17 13:54 UTC.
Position N 37°58' W 000°31'.

Length 24 m.

Type: Fishing. MMSI: 224217120.

Date/timePositionNaut miles runAvg speedWind from/ knotsBaromVisibWave heightAir tempDewpointWater temp
2017-Oct-15 18:33N 37°58' W 000°31'0 9.0
2017-Oct-15 18:30N 37°58' W 000°32'4 8.8
2017-Oct-15 18:00N 37°55' W 000°36'4 8.6
2017-Oct-15 17:30N 37°52' W 000°40'4 8.6
2017-Oct-15 17:00N 37°49' W 000°44'1 1.5
2017-Oct-15 16:30N 37°49' W 000°45'0 0.0
2017-Oct-15 16:00N 37°49' W 000°45'0 0.0
2017-Oct-15 15:30N 37°49' W 000°45'  
2017-Oct-13 06:54N 37°49' W 000°45'0 0.0
2017-Oct-13 06:30N 37°49' W 000°45'0 0.1
2017-Oct-13 06:00N 37°49' W 000°45'4 7.7
2017-Oct-13 05:30N 37°50' W 000°40'3 5.2
2017-Oct-13 04:57N 37°49' W 000°37'0 0.6
2017-Oct-13 04:17N 37°48' W 000°38'0 0.7
2017-Oct-13 03:49N 37°48' W 000°38'0 0.1
2017-Oct-13 03:17N 37°48' W 000°38'0 0.5
2017-Oct-13 02:56N 37°48' W 000°38'0 1.1
2017-Oct-13 02:30N 37°49' W 000°38'0 0.6
2017-Oct-13 02:00N 37°48' W 000°38'0 0.3
2017-Oct-13 01:21N 37°48' W 000°38'0 0.3
2017-Oct-13 01:00N 37°49' W 000°38'0 0.6
2017-Oct-13 00:29N 37°48' W 000°38'0 0.2
2017-Oct-13 00:00N 37°48' W 000°38'0 0.4
2017-Oct-12 23:25N 37°48' W 000°38'0 0.1
2017-Oct-12 22:54N 37°48' W 000°38'0 0.4
2017-Oct-12 22:25N 37°48' W 000°38'2 2.6
2017-Oct-12 21:32N 37°46' W 000°38'0 9.2
2017-Oct-12 21:30N 37°46' W 000°38'2 3.5
2017-Oct-12 21:00N 37°48' W 000°37'3 5.9
2017-Oct-12 20:30N 37°45' W 000°37'0 0.6
2017-Oct-12 20:00N 37°45' W 000°37'0 0.2
2017-Oct-12 19:30N 37°45' W 000°37'4 7.6
2017-Oct-12 19:00N 37°47' W 000°41'3 0.1
2017-Oct-11 00:00N 37°43' W 000°42'4 8.2
2017-Oct-10 23:30N 37°45' W 000°37'0 0.5
2017-Oct-10 23:00N 37°45' W 000°37'0 0.7
2017-Oct-10 22:30N 37°45' W 000°37'0 0.2
2017-Oct-10 21:32N 37°45' W 000°37'0 3.8
2017-Oct-10 21:30N 37°45' W 000°37'0 0.2
2017-Oct-10 21:00N 37°45' W 000°37'0 0.2
2017-Oct-10 20:30N 37°45' W 000°37'3 6.9
2017-Oct-10 20:00N 37°47' W 000°41'4 8.4
2017-Oct-10 19:30N 37°49' W 000°45'0 0.0
2017-Oct-10 10:07N 37°49' W 000°45'0 0.0
2017-Oct-10 10:00N 37°49' W 000°45'0 0.0
2017-Oct-10 09:30N 37°49' W 000°45'0 0.0
2017-Oct-10 09:00N 37°49' W 000°45'0 0.0
2017-Oct-10 08:30N 37°49' W 000°45'0 0.0
2017-Oct-10 08:00N 37°49' W 000°45'4 8.0
2017-Oct-10 07:30N 37°52' W 000°41'5 9.5
2017-Oct-10 06:57N 37°54' W 000°35'6 0.8
2017-Oct-09 23:13N 37°58' W 000°30'2 8.8
2017-Oct-09 23:00N 37°57' W 000°31'0 0.7
2017-Oct-09 22:26N 37°56' W 000°31'0 0.6
2017-Oct-09 21:56N 37°56' W 000°31'2 3.2
2017-Oct-09 21:26N 37°55' W 000°32'2 4.2
2017-Oct-09 21:00N 37°53' W 000°32'0 0.1
2017-Oct-09 20:29N 37°53' W 000°32'3 6.3
2017-Oct-09 19:58N 37°51' W 000°35'4 9.2
2017-Oct-09 19:30N 37°50' W 000°40'4 0.4
2017-Oct-09 08:27N 37°49' W 000°45'0 0.0
2017-Oct-09 08:01N 37°49' W 000°45'2 4.6
2017-Oct-09 07:31N 37°50' W 000°43'5 9.0
2017-Oct-09 07:01N 37°52' W 000°37'4 8.7
2017-Oct-09 06:31N 37°53' W 000°32'1 1.1
2017-Oct-09 06:01N 37°54' W 000°32'0 0.5
2017-Oct-09 05:31N 37°53' W 000°32'1 1.4
2017-Oct-09 04:59N 37°54' W 000°32'0 0.7
2017-Oct-09 04:30N 37°54' W 000°32'0 0.3
2017-Oct-09 04:01N 37°54' W 000°32'0 0.5
2017-Oct-09 03:31N 37°54' W 000°32'0 0.5
2017-Oct-09 03:00N 37°54' W 000°32'0 0.2
2017-Oct-09 02:31N 37°54' W 000°32'2 3.2
2017-Oct-09 01:59N 37°55' W 000°32'0 0.4
2017-Oct-09 01:30N 37°55' W 000°32'0 0.2
2017-Oct-09 00:57N 37°55' W 000°31'1 1.8
2017-Oct-09 00:30N 37°56' W 000°32'0 0.4
2017-Oct-08 23:24N 37°56' W 000°32'0 0.5
2017-Oct-08 23:00N 37°55' W 000°31'4 7.8
2017-Oct-08 22:30N 37°53' W 000°35'1 1.5
2017-Oct-08 22:00N 37°52' W 000°36'0 0.1
2017-Oct-08 21:31N 37°52' W 000°36'3 6.5
2017-Oct-08 21:00N 37°51' W 000°39'4 9.0
2017-Oct-08 20:31N 37°49' W 000°45'  
2017-Oct-06 11:29N 37°49' W 000°45'0 0.0
2017-Oct-06 10:22N 37°49' W 000°45'0 0.0
2017-Oct-06 10:00N 37°49' W 000°45'0 0.0
2017-Oct-06 09:30N 37°49' W 000°45'0 0.0
2017-Oct-06 09:00N 37°49' W 000°45'0 0.0
2017-Oct-06 08:30N 37°49' W 000°45'0 0.0
2017-Oct-06 08:00N 37°49' W 000°45'0 0.0
2017-Oct-06 07:30N 37°49' W 000°45'0 0.0
2017-Oct-06 07:00N 37°49' W 000°45'0 0.8
2017-Oct-06 06:30N 37°49' W 000°45'5 9.1
2017-Oct-06 06:00N 37°52' W 000°41'4 8.1
2017-Oct-06 05:29N 37°54' W 000°36'1 1.7
2017-Oct-06 05:00N 37°55' W 000°35'5 1.9
2017-Oct-06 02:12N 37°52' W 000°29'1 1.6
2017-Oct-06 01:41N 37°52' W 000°30'3 8.8
2017-Oct-06 01:20N 37°51' W 000°34'3 8.7
2017-Oct-06 00:59N 37°50' W 000°37'4 8.5
2017-Oct-06 00:30N 37°50' W 000°42'  

Dump ship's entire track history